Terminal Aerodrome Forecast
Issued by NWS Goodland, KS

Home | Current Version | Previous Version | Text Only | Print | Product List | Glossary On
Versions: 1 2 3 4 5 6 7 8 9 10 11 12 13 14 15 16
000
FTUS43 KGLD 241129
TAFGLD
TAF
KGLD 241129Z 2412/2512 30006KT P6SM BKN110
     FM241500 31016G24KT P6SM FEW200
     FM241800 30028G38KT 6SM BLDU FEW250
     FM242300 30014G24KT P6SM SCT250
     FM250200 19006KT P6SM BKN150
     FM250700 25007KT P6SM BKN120=

USA.gov is the U.S. government's official web portal to all federal, state and local government web resources and services.